Time;durP1;ratioP1;P1;durP2;ratioP2;P2;SDS_P1;SDS_P2;PMS_P1;PMS_P2;Temp;Humidity;BMP_temperature;BMP_pressure;BME280_temperature;BME280_humidity;BME280_pressure;Samples;Min_cycle;Max_cycle;Signal;HPM_P1;HPM_P2
2022/11/10 00:03:49;;;;;;;37.00;18.43;;;;;;;10.55;100.00;100580.87;5160708;55;1145194;-78
2022/11/10 00:09:13;;;;;;;42.20;21.87;;;;;;;10.57;100.00;100574.98;5049751;56;1145185;-76
2022/11/10 00:20:17;;;;;;;35.00;20.23;;;;;;;10.58;100.00;100575.83;5124104;55;1145227;-78
2022/11/10 00:25:40;;;;;;;33.75;20.25;;;;;;;10.61;100.00;100587.98;5072362;55;1145031;-78
2022/11/10 00:31:08;;;;;;;35.05;18.27;;;;;;;10.58;100.00;100597.83;5146087;55;1145081;-77
2022/11/10 00:36:31;;;;;;;36.40;18.37;;;;;;;10.60;100.00;100600.84;5140525;55;1145229;-76
2022/11/10 00:41:54;;;;;;;;;;;;;;;10.59;100.00;100601.31;5137384;56;1145294;-77
2022/11/10 00:47:17;;;;;;;36.57;18.37;;;;;;;10.57;100.00;100612.48;5149990;56;978331;-78
2022/11/10 00:52:41;;;;;;;30.17;17.20;;;;;;;10.52;100.00;100614.66;5142139;55;1143068;-77
2022/11/10 00:58:04;;;;;;;40.25;22.70;;;;;;;10.50;100.00;100613.45;5170888;55;1145176;-77
2022/11/10 01:03:27;;;;;;;32.10;17.50;;;;;;;10.51;100.00;100618.27;5182027;55;1145312;-77
2022/11/10 01:08:50;;;;;;;30.50;17.55;;;;;;;10.50;100.00;100608.16;5106670;56;1145132;-77
2022/11/10 01:14:14;;;;;;;28.77;17.62;;;;;;;10.50;100.00;100616.58;5208851;55;1145101;-78
2022/11/10 01:19:38;;;;;;;37.10;19.23;;;;;;;10.52;100.00;100618.62;5141460;55;1145255;-77
2022/11/10 01:25:00;;;;;;;;;;;;;;;10.52;100.00;100623.92;5060140;57;1144991;-77
2022/11/10 01:30:23;;;;;;;36.23;19.97;;;;;;;10.52;100.00;100625.23;5073014;57;978296;-78
2022/11/10 01:35:47;;;;;;;40.73;20.27;;;;;;;10.52;100.00;100630.53;5195629;55;1191443;-77
2022/11/10 01:41:13;;;;;;;39.13;18.40;;;;;;;10.53;100.00;100629.09;5180032;55;1144964;-77
2022/11/10 01:46:37;;;;;;;29.50;17.37;;;;;;;10.52;100.00;100630.05;5141308;56;1145139;-77
2022/11/10 01:52:12;;;;;;;29.77;17.05;;;;;;;10.54;100.00;100633.39;5130326;55;1145132;-77
2022/11/10 01:57:37;;;;;;;40.03;19.37;;;;;;;10.57;100.00;100637.61;5148067;55;1145107;-77
2022/11/10 02:03:11;;;;;;;33.37;18.37;;;;;;;10.56;100.00;100645.19;5197870;55;1145046;-77
2022/11/10 02:08:35;;;;;;;22.45;13.80;;;;;;;10.58;100.00;100638.82;5095580;55;1145032;-77
2022/11/10 02:13:59;;;;;;;31.20;17.13;;;;;;;10.61;100.00;100643.05;5127734;55;1145092;-77
2022/11/10 02:19:25;;;;;;;30.07;18.03;;;;;;;10.61;100.00;100649.66;5093180;55;1145065;-77
2022/11/10 02:24:49;;;;;;;31.62;14.13;;;;;;;10.61;100.00;100654.95;5038630;56;1145144;-77
2022/11/10 02:30:12;;;;;;;;;;;;;;;10.63;100.00;100648.22;5061504;56;1145148;-77
2022/11/10 02:35:35;;;;;;;31.05;19.30;;;;;;;10.64;100.00;100657.84;5082695;56;978313;-78
2022/11/10 02:40:58;;;;;;;36.50;19.35;;;;;;;10.63;100.00;100657.48;5043445;56;1142848;-77
2022/11/10 02:46:21;;;;;;;31.00;16.95;;;;;;;10.63;100.00;100659.64;5042705;56;1144995;-78
2022/11/10 02:51:45;;;;;;;26.13;14.60;;;;;;;10.63;100.00;100665.41;5018049;57;1145052;-77
2022/11/10 02:57:08;;;;;;;30.37;17.37;;;;;;;10.62;100.00;100669.86;4954608;57;1144982;-77
2022/11/10 03:02:31;;;;;;;30.84;17.14;;;;;;;10.60;100.00;100682.35;5023800;57;1145253;-77
2022/11/10 03:08:00;;;;;;;31.68;17.10;;;;;;;10.58;100.00;100677.17;5033394;57;1145098;-77
2022/11/10 03:13:26;;;;;;;29.83;16.20;;;;;;;10.60;100.00;100677.06;5034329;57;1145174;-77
2022/11/10 03:18:49;;;;;;;27.77;15.80;;;;;;;10.60;100.00;100679.70;4901260;58;1145166;-77
2022/11/10 03:24:13;;;;;;;25.15;16.57;;;;;;;10.59;100.00;100676.70;4898269;58;1145094;-77
2022/11/10 03:29:36;;;;;;;25.27;16.23;;;;;;;10.57;100.00;100694.47;4897851;58;1145074;-78
2022/11/10 03:34:58;;;;;;;;;;;;;;;10.54;100.00;100689.44;4901855;58;1145355;-77
2022/11/10 03:40:22;;;;;;;27.53;16.40;;;;;;;10.54;100.00;100700.02;4914821;58;978120;-77
2022/11/10 03:45:46;;;;;;;29.53;15.40;;;;;;;10.51;100.00;100705.05;4898683;58;1142995;-76
2022/11/10 03:51:09;;;;;;;24.82;14.35;;;;;;;10.51;100.00;100699.77;4898468;58;1144985;-77
2022/11/10 03:56:32;;;;;;;;;;;;;;;10.51;100.00;100705.53;5013130;57;1145075;-77
2022/11/10 04:01:56;;;;;;;24.43;13.97;;;;;;;10.49;100.00;100716.70;5143454;56;978289;-77
2022/11/10 04:18:41;;;;;;;27.30;13.48;;;;;;;10.42;100.00;100718.09;5128450;55;1143015;-76
2022/11/10 04:24:05;;;;;;;25.23;15.77;;;;;;;10.39;100.00;100717.83;5128159;55;1145109;-77
2022/11/10 04:29:28;;;;;;;21.90;13.62;;;;;;;10.39;100.00;100731.05;5118393;55;1145209;-77
2022/11/10 04:34:52;;;;;;;21.07;12.98;;;;;;;10.40;100.00;100739.83;5163990;55;1145097;-77
2022/11/10 04:40:15;;;;;;;26.48;14.15;;;;;;;10.41;100.00;100745.48;5167879;55;1145166;-76
2022/11/10 04:45:38;;;;;;;21.12;13.25;;;;;;;10.43;100.00;100756.80;5140288;55;1145344;-76
2022/11/10 04:51:06;;;;;;;23.92;12.30;;;;;;;10.45;100.00;100766.31;5127470;55;1144958;-77
2022/11/10 04:56:31;;;;;;;18.97;12.10;;;;;;;10.43;100.00;100764.25;5221099;55;1145184;-75
2022/11/10 05:01:55;;;;;;;21.93;10.95;;;;;;;10.46;100.00;100773.77;5183868;55;1144985;-76
2022/11/10 05:07:18;;;;;;;15.50;9.63;;;;;;;10.46;100.00;100773.77;5182829;55;1145104;-77
2022/11/10 05:12:42;;;;;;;14.20;8.80;;;;;;;10.46;100.00;100778.58;5175265;55;1143077;-77
2022/11/10 05:18:06;;;;;;;19.32;8.03;;;;;;;10.46;100.00;100791.80;5146372;55;1143040;-76
2022/11/10 05:23:40;;;;;;;12.07;8.10;;;;;;;10.49;100.00;100797.34;5116051;56;1143134;-77
2022/11/10 05:29:03;;;;;;;13.43;8.05;;;;;;;10.50;100.00;100799.04;5141138;56;1143488;-78
2022/11/10 05:34:27;;;;;;;12.23;7.27;;;;;;;10.50;100.00;100797.24;5137166;55;1143356;-77
2022/11/10 05:39:50;;;;;;;13.40;7.50;;;;;;;10.47;100.00;100812.00;5093064;55;1142949;-77
2022/11/10 05:45:13;;;;;;;11.50;5.77;;;;;;;10.46;100.00;100820.89;5095896;55;1143551;-75
2022/11/10 05:50:36;;;;;;;12.33;7.42;;;;;;;10.45;100.00;100826.28;5164205;55;1143019;-77
2022/11/10 05:55:59;;;;;;;;;;;;;;;10.44;100.00;100836.49;5166085;54;1143152;-77
2022/11/10 06:01:22;;;;;;;16.03;7.00;;;;;;;10.43;100.00;100846.22;5144516;55;978278;-76
2022/11/10 06:06:46;;;;;;;10.90;6.55;;;;;;;10.42;100.00;100854.27;5173681;55;1140826;-78
2022/11/10 06:12:09;;;;;;;11.22;5.80;;;;;;;10.43;100.00;100861.24;5115762;56;1143038;-78
2022/11/10 06:17:33;;;;;;;8.03;6.22;;;;;;;10.44;100.00;100870.87;5120352;56;1143547;-78
2022/11/10 06:23:05;;;;;;;10.70;6.10;;;;;;;10.47;100.00;100883.88;5126254;56;1141093;-76
2022/11/10 06:28:28;;;;;;;8.83;4.50;;;;;;;10.48;100.00;100889.53;5117079;56;1142869;-66
2022/11/10 06:33:51;;;;;;;;;;;;;;;10.48;100.00;100900.11;5097871;56;1141309;-66
2022/11/10 06:39:14;;;;;;;7.90;5.00;;;;;;;10.45;100.00;100914.39;5104430;55;978328;-65
2022/11/10 06:44:38;;;;;;;7.87;3.87;;;;;;;10.42;100.00;100929.14;5101023;55;1138751;-68
2022/11/10 06:50:01;;;;;;;11.00;4.27;;;;;;;10.39;100.00;100937.29;5198550;55;1140957;-70
2022/11/10 06:55:25;;;;;;;19.35;4.87;;;;;;;10.36;100.00;100941.97;5214901;55;1143176;-65
2022/11/10 07:00:48;;;;;;;9.70;4.85;;;;;;;10.35;100.00;100955.66;5206875;55;1199682;-67
2022/11/10 07:06:12;;;;;;;10.38;4.37;;;;;;;10.33;100.00;100967.30;5170009;55;1140749;-67
2022/11/10 07:11:35;;;;;;;8.73;5.10;;;;;;;10.35;100.00;100972.00;5214535;55;1142876;-77
2022/11/10 07:16:59;;;;;;;8.47;3.80;;;;;;;10.38;100.00;100980.58;5215351;55;1140750;-77
2022/11/10 07:22:23;;;;;;;10.97;3.87;;;;;;;10.44;100.00;100989.38;5117709;55;1140983;-77
2022/11/10 07:27:48;;;;;;;6.30;4.05;;;;;;;10.55;100.00;101005.34;5197343;55;1142985;-77
2022/11/10 07:33:15;;;;;;;5.37;3.73;;;;;;;10.58;100.00;101010.90;5163313;55;1141197;-76
2022/11/10 07:38:39;;;;;;;11.05;3.70;;;;;;;10.61;100.00;101013.34;5144228;55;1141116;-77
2022/11/10 07:44:02;;;;;;;13.10;3.80;;;;;;;10.61;100.00;101019.95;5050597;55;1143199;-77
2022/11/10 07:49:24;;;;;;;;;;;;;;;10.64;100.00;101029.48;5037220;57;1143099;-76
2022/11/10 07:54:48;;;;;;;10.40;3.95;;;;;;;10.66;100.00;101039.00;5060674;56;978198;-78
2022/11/10 08:00:12;;;;;;;4.17;2.93;;;;;;;10.70;100.00;101047.55;5044321;56;1141024;-78
2022/11/10 08:05:35;;;;;;;8.03;3.20;;;;;;;10.75;100.00;101054.22;5040935;56;1141226;-76
2022/11/10 08:10:59;;;;;;;14.58;3.20;;;;;;;10.82;100.00;101054.66;5039675;56;1141175;-76
2022/11/10 08:16:22;;;;;;;6.47;2.87;;;;;;;10.85;100.00;101059.23;5039290;56;1142862;-76
2022/11/10 08:21:45;;;;;;;;;;;;;;;10.97;100.00;101073.91;5125865;55;1140740;-77
2022/11/10 08:27:08;;;;;;;6.57;3.13;;;;;;;11.21;100.00;101088.88;5118800;55;978179;-76
2022/11/10 08:32:32;;;;;;;11.70;3.62;;;;;;;11.22;100.00;101091.90;5086928;55;1260444;-78
2022/11/10 08:37:56;;;;;;;8.98;3.40;;;;;;;11.20;100.00;101108.84;5088519;56;1143141;-78
2022/11/10 08:43:19;;;;;;;;;;;;;;;11.15;100.00;101122.91;5105136;55;1140995;-77
2022/11/10 08:48:43;;;;;;;6.90;2.80;;;;;;;11.10;100.00;101127.19;5135749;55;978248;-76
2022/11/10 08:54:06;;;;;;;9.33;3.45;;;;;;;11.11;100.00;101128.04;5215420;55;1138894;-76
2022/11/10 08:59:29;;;;;;;7.10;3.98;;;;;;;11.20;100.00;101144.11;5215099;55;1141309;-76
2022/11/10 09:04:54;;;;;;;8.67;3.20;;;;;;;11.24;100.00;101146.92;5133169;55;1141122;-78
2022/11/10 09:10:17;;;;;;;4.37;2.60;;;;;;;11.38;100.00;101148.59;5121417;55;1140909;-79
2022/11/10 09:15:45;;;;;;;;;;;;;;;11.50;100.00;101156.98;5232669;55;1140957;-76
2022/11/10 09:21:10;;;;;;;8.37;3.60;;;;;;;11.57;100.00;101163.55;5172220;55;978257;-78
2022/11/10 09:26:32;;;;;;;7.15;2.45;;;;;;;11.71;100.00;101175.81;5151874;55;1138606;-78
2022/11/10 09:31:56;;;;;;;8.70;3.20;;;;;;;11.77;100.00;101185.14;5087998;56;1140784;-79
2022/11/10 09:37:19;;;;;;;5.97;2.80;;;;;;;11.86;100.00;101193.30;5079181;56;1141002;-78
2022/11/10 09:42:43;;;;;;;8.58;2.58;;;;;;;11.93;100.00;101202.95;5133827;55;1140883;-75
2022/11/10 09:48:30;;;;;;;9.87;2.33;;;;;;;12.07;100.00;101195.35;5131191;55;1140912;-76
2022/11/10 09:54:04;;;;;;;6.80;1.80;;;;;;;12.15;100.00;101212.38;5091514;55;1141063;-77
2022/11/10 09:59:31;;;;;;;6.22;1.85;;;;;;;12.21;100.00;101217.73;5140067;55;1140899;-77
2022/11/10 10:05:19;;;;;;;10.37;2.40;;;;;;;12.20;100.00;101220.01;5092898;56;1140874;-77
2022/11/10 10:10:48;;;;;;;4.10;1.30;;;;;;;12.17;100.00;101220.23;5097892;55;1143007;-78
2022/11/10 10:16:35;;;;;;;11.17;1.90;;;;;;;12.19;100.00;101234.23;5187927;55;1140913;-76
2022/11/10 10:22:46;;;;;;;7.67;2.13;;;;;;;12.17;100.00;101235.66;5122005;55;1143026;-78
2022/11/10 10:28:24;;;;;;;14.13;2.10;;;;;;;12.25;100.00;101243.89;5134538;55;1141159;-77
2022/11/10 10:33:49;;;;;;;6.53;2.20;;;;;;;12.51;100.00;101228.73;5128264;55;1143096;-77
2022/11/10 10:39:29;;;;;;;12.10;2.60;;;;;;;12.74;100.00;101243.39;5157701;55;1140850;-76
2022/11/10 10:45:18;;;;;;;4.50;1.32;;;;;;;12.71;100.00;101248.45;5075112;55;1143015;-78
2022/11/10 10:50:45;;;;;;;12.43;1.67;;;;;;;12.57;100.00;101261.42;5074691;56;1141079;-76
2022/11/10 10:56:22;;;;;;;7.00;1.93;;;;;;;12.46;100.00;101260.53;5074406;56;1143142;-77
2022/11/10 11:01:46;;;;;;;8.18;1.85;;;;;;;12.42;100.00;101262.55;5063759;56;1140850;-76
2022/11/10 11:07:24;;;;;;;6.10;1.40;;;;;;;12.42;100.00;101258.57;5142394;55;1141288;-67
2022/11/10 11:12:47;;;;;;;8.00;1.67;;;;;;;12.40;100.00;101270.25;5208204;55;1140863;-67
2022/11/10 11:18:19;;;;;;;3.07;1.57;;;;;;;12.36;100.00;101286.05;5118151;56;1141012;-65
2022/11/10 11:23:53;;;;;;;6.03;1.70;;;;;;;12.30;100.00;101285.52;5141021;56;1140894;-67
2022/11/10 11:29:44;;;;;;;2.07;0.90;;;;;;;12.28;100.00;101279.48;5151646;55;1140898;-65
2022/11/10 11:35:32;;;;;;;11.73;1.83;;;;;;;12.50;100.00;101281.42;5124564;55;1140866;-64
2022/11/10 11:41:36;;;;;;;8.17;2.10;;;;;;;12.76;100.00;101283.47;5056004;56;1143029;-67
2022/11/10 11:47:26;;;;;;;5.20;1.40;;;;;;;13.29;100.00;101282.08;5055359;57;1140815;-66
2022/11/10 11:53:14;;;;;;;6.07;1.57;;;;;;;13.16;100.00;101283.14;5056015;57;1140840;-68
2022/11/10 11:58:47;;;;;;;9.20;2.15;;;;;;;13.16;100.00;101300.41;5129470;55;1141075;-65
2022/11/10 12:04:34;;;;;;;3.02;1.17;;;;;;;13.07;100.00;101304.58;5176764;55;1141002;-66
2022/11/10 12:10:09;;;;;;;8.57;1.50;;;;;;;12.99;100.00;101313.11;4992663;56;1141288;-70
2022/11/10 12:15:41;;;;;;;;;;;;;;;13.07;100.00;101319.67;5075309;55;1141096;-75
2022/11/10 12:21:14;;;;;;;5.50;1.53;;;;;;;12.99;100.00;101322.41;5123299;55;978304;-79
2022/11/10 12:26:59;;;;;;;3.62;1.60;;;;;;;13.11;100.00;101318.48;5111053;55;1138803;-77
2022/11/10 12:32:54;;;;;;;10.77;1.60;;;;;;;13.02;100.00;101313.37;5151664;55;1140821;-77
2022/11/10 12:38:30;;;;;;;7.50;1.73;;;;;;;12.94;100.00;101329.05;5141215;55;1142836;-76
2022/11/10 12:44:39;;;;;;;8.27;1.33;;;;;;;12.89;100.00;101339.99;5092117;56;1141100;-77
2022/11/10 12:50:20;;;;;;;7.10;1.27;;;;;;;12.84;100.00;101356.73;5186797;55;1141121;-75
2022/11/10 12:55:48;;;;;;;7.22;2.20;;;;;;;12.96;100.00;101353.67;5187749;55;1141143;-76
2022/11/10 13:01:20;;;;;;;10.43;2.17;;;;;;;13.02;100.00;101373.11;5204924;55;1141092;-77
2022/11/10 13:06:52;;;;;;;8.28;2.12;;;;;;;13.72;100.00;101374.47;5100682;55;1142992;-78
2022/11/10 13:12:22;;;;;;;7.20;1.70;;;;;;;14.18;100.00;101363.75;5108239;55;1140810;-76
2022/11/10 13:17:52;;;;;;;7.97;1.63;;;;;;;14.15;98.65;101373.78;5068591;56;1141122;-75
2022/11/10 13:23:32;;;;;;;15.83;2.30;;;;;;;14.15;98.26;101383.09;5200866;55;1138963;-76
2022/11/10 13:29:03;;;;;;;11.62;2.42;;;;;;;14.35;96.64;101386.36;5037124;56;1141012;-76
2022/11/10 13:34:33;;;;;;;10.70;2.27;;;;;;;14.86;94.44;101392.45;5112619;55;1140882;-77
2022/11/10 13:40:29;;;;;;;4.70;1.80;;;;;;;15.42;93.52;101403.28;5137720;55;1141041;-77
2022/11/10 13:46:01;;;;;;;9.08;2.22;;;;;;;15.57;90.96;101396.34;5064204;55;1139026;-76
2022/11/10 13:51:41;;;;;;;6.33;1.83;;;;;;;15.49;91.86;101408.44;5082070;55;1138841;-77
2022/11/10 13:57:32;;;;;;;11.03;2.37;;;;;;;15.58;90.02;101426.87;5123656;56;1139130;-78
2022/11/10 14:03:03;;;;;;;5.83;1.87;;;;;;;15.16;89.99;101431.72;5121944;55;1140826;-76
2022/11/10 14:08:29;;;;;;;15.37;2.23;;;;;;;14.31;93.39;101443.45;5205633;55;1138738;-78
2022/11/10 14:13:56;;;;;;;7.10;1.85;;;;;;;13.80;95.62;101447.84;5158234;55;1141081;-78
2022/11/10 14:19:39;;;;;;;5.47;1.67;;;;;;;13.47;97.30;101460.53;5106943;55;1138820;-78
2022/11/10 14:25:41;;;;;;;5.33;1.87;;;;;;;13.27;98.60;101470.48;5176243;55;1139024;-77
2022/11/10 14:31:05;;;;;;;12.47;2.83;;;;;;;13.11;99.64;101477.84;5205874;55;1139027;-78
2022/11/10 14:36:28;;;;;;;4.90;1.67;;;;;;;12.91;100.00;101480.60;5167778;55;1140981;-78
2022/11/10 14:41:52;;;;;;;7.62;2.05;;;;;;;12.74;100.00;101488.92;5073010;56;1141218;-75
2022/11/10 14:47:29;;;;;;;5.30;1.32;;;;;;;12.57;100.00;101497.59;5125152;56;1141131;-77
2022/11/10 14:52:58;;;;;;;5.05;1.70;;;;;;;12.44;100.00;101499.89;5092173;55;1140822;-75
2022/11/10 14:58:38;;;;;;;11.00;2.40;;;;;;;12.37;100.00;101504.80;5167578;55;1140897;-77
2022/11/10 15:04:05;;;;;;;7.83;1.80;;;;;;;12.26;100.00;101510.82;5142258;55;1142942;-75
2022/11/10 15:09:32;;;;;;;12.67;3.43;;;;;;;12.13;100.00;101511.77;5060286;56;1140834;-77
2022/11/10 15:15:00;;;;;;;10.48;2.65;;;;;;;12.10;100.00;101533.19;5122567;56;1143192;-78
2022/11/10 15:20:39;;;;;;;8.80;2.70;;;;;;;12.00;100.00;101543.58;5068069;56;1142957;-77
2022/11/10 15:26:05;;;;;;;7.37;1.87;;;;;;;11.91;100.00;101556.13;5085508;55;1140999;-75
2022/11/10 15:31:31;;;;;;;11.03;2.87;;;;;;;11.80;100.00;101564.78;5032850;55;1140916;-78
2022/11/10 15:37:25;;;;;;;10.03;2.97;;;;;;;11.77;100.00;101567.62;5087915;56;1142941;-80
2022/11/10 15:43:10;;;;;;;11.73;3.03;;;;;;;11.73;100.00;101591.77;5127958;55;1142876;-77
2022/11/10 15:48:40;;;;;;;14.17;4.50;;;;;;;11.68;100.00;101592.05;5125974;55;1142899;-77
2022/11/10 15:54:05;;;;;;;10.50;3.00;;;;;;;11.64;100.00;101597.17;5142867;55;1142863;-77
2022/11/10 15:59:29;;;;;;;9.77;2.90;;;;;;;11.60;100.00;101607.14;5061162;56;1143319;-78
2022/11/10 16:04:54;;;;;;;7.13;2.97;;;;;;;11.58;100.00;101610.84;5161029;55;1140928;-80
2022/11/10 16:10:17;;;;;;;9.50;6.37;;;;;;;11.56;100.00;101621.53;5105163;55;1141023;-77
2022/11/10 16:15:44;;;;;;;11.97;7.00;;;;;;;11.58;100.00;101623.61;5127426;55;1140890;-79
2022/11/10 16:21:13;;;;;;;16.17;7.93;;;;;;;11.61;100.00;101623.86;5105196;55;1143073;-81
2022/11/10 16:26:37;;;;;;;23.93;11.10;;;;;;;11.61;100.00;101632.66;5059017;56;1143036;-79
2022/11/10 16:32:02;;;;;;;46.90;21.57;;;;;;;11.62;100.00;101658.69;5127567;56;1145073;-78
2022/11/10 16:37:25;;;;;;;16.50;6.97;;;;;;;11.59;100.00;101653.13;5125744;55;1145305;-77
2022/11/10 16:42:48;;;;;;;;;;;;;;;11.57;100.00;101644.42;5095202;55;1143223;-80
2022/11/10 16:48:19;;;;;;;33.63;21.87;;;;;;;11.55;100.00;101654.27;5143883;56;978318;-77
2022/11/10 16:53:42;;;;;;;28.47;14.70;;;;;;;11.46;100.00;101652.19;5128177;55;1143168;-77
2022/11/10 16:59:05;;;;;;;58.63;36.40;;;;;;;11.47;100.00;101657.01;5128052;55;1145073;-78
2022/11/10 17:04:29;;;;;;;84.10;55.13;;;;;;;11.43;100.00;101650.23;5133319;54;1144906;-79
2022/11/10 17:09:53;;;;;;;32.25;17.92;;;;;;;11.37;100.00;101652.78;5169668;55;1144942;-79
2022/11/10 17:15:18;;;;;;;22.15;13.18;;;;;;;11.40;100.00;101658.36;5157058;55;1145307;-79
2022/11/10 17:20:46;;;;;;;21.07;8.65;;;;;;;11.39;100.00;101654.01;5104582;55;1145326;-78
2022/11/10 17:26:14;;;;;;;11.47;6.20;;;;;;;11.37;100.00;101667.81;5096160;55;1142875;-77
2022/11/10 17:31:38;;;;;;;14.50;5.33;;;;;;;11.34;100.00;101677.27;5107387;55;1142969;-79
2022/11/10 17:37:02;;;;;;;14.40;5.10;;;;;;;11.31;100.00;101686.25;5159740;55;1143326;-78
2022/11/10 17:42:26;;;;;;;20.60;6.20;;;;;;;11.30;100.00;101685.91;5147921;55;1142963;-78
2022/11/10 17:47:51;;;;;;;12.80;6.15;;;;;;;11.26;100.00;101693.66;5145353;55;1143101;-79
2022/11/10 17:53:24;;;;;;;13.47;5.60;;;;;;;11.22;100.00;101699.61;5205600;55;1142906;-79
2022/11/10 17:58:47;;;;;;;61.00;27.90;;;;;;;11.21;100.00;101708.97;5198654;55;1142966;-79
2022/11/10 18:04:13;;;;;;;26.87;11.03;;;;;;;11.16;100.00;101719.83;5104383;56;1145076;-77
2022/11/10 18:09:37;;;;;;;48.60;18.65;;;;;;;11.20;100.00;101727.12;5058999;56;1145110;-78
2022/11/10 18:14:59;;;;;;;;;;;;;;;11.17;100.00;101726.83;5057757;57;1145181;-78
2022/11/10 18:20:24;;;;;;;20.50;7.60;;;;;;;11.17;100.00;101735.25;5076267;56;978376;-79
2022/11/10 18:25:48;;;;;;;27.48;7.83;;;;;;;11.14;100.00;101741.60;5097949;55;1141004;-78
2022/11/10 18:31:14;;;;;;;17.37;5.70;;;;;;;11.10;100.00;101744.52;5153715;55;1143083;-78
2022/11/10 18:36:38;;;;;;;15.77;5.20;;;;;;;11.09;100.00;101754.73;5095254;55;1143146;-79
2022/11/10 18:42:02;;;;;;;18.80;6.30;;;;;;;11.06;100.00;101750.47;5101203;55;1143192;-77
2022/11/10 18:47:25;;;;;;;;;;;;;;;11.12;100.00;101742.63;5101104;55;1143109;-76
2022/11/10 18:52:50;;;;;;;20.65;6.53;;;;;;;11.15;100.00;101734.52;5134380;55;978508;-77
2022/11/10 18:58:15;;;;;;;84.60;36.90;;;;;;;11.14;100.00;101744.25;5158893;55;1140825;-77
2022/11/10 19:03:41;;;;;;;21.57;10.03;;;;;;;11.14;100.00;101739.42;5111901;55;1144988;-75
2022/11/10 19:09:06;;;;;;;28.17;7.97;;;;;;;11.09;100.00;101737.05;5122108;56;1145024;-77
2022/11/10 19:14:31;;;;;;;14.83;6.40;;;;;;;11.07;100.00;101739.41;5112619;55;1142874;-76
2022/11/10 19:19:57;;;;;;;30.92;14.58;;;;;;;11.05;100.00;101735.98;5101601;56;1142924;-76
2022/11/10 19:25:22;;;;;;;31.75;15.90;;;;;;;11.00;100.00;101746.02;5087132;56;1145136;-76
2022/11/10 19:30:47;;;;;;;97.33;53.23;;;;;;;11.00;100.00;101764.05;5087532;56;1145110;-76
2022/11/10 19:36:15;;;;;;;25.93;14.77;;;;;;;10.96;100.00;101754.61;5105318;56;1145149;-77
2022/11/10 19:41:39;;;;;;;20.87;7.63;;;;;;;10.94;100.00;101761.79;5090383;55;1145163;-77
2022/11/10 19:47:04;;;;;;;20.47;8.67;;;;;;;10.92;100.00;101755.27;5099699;55;1143213;-75
2022/11/10 19:52:30;;;;;;;32.30;11.80;;;;;;;10.90;100.00;101758.47;5126710;55;1143040;-78
2022/11/10 19:57:55;;;;;;;19.65;7.05;;;;;;;10.84;100.00;101768.11;5100868;56;1145108;-75
2022/11/10 20:03:20;;;;;;;16.73;6.50;;;;;;;10.77;100.00;101761.92;5170240;55;1143120;-76
2022/11/10 20:08:47;;;;;;;18.60;5.58;;;;;;;10.77;100.00;101785.74;5186929;55;1143234;-76
2022/11/10 20:14:11;;;;;;;34.00;11.80;;;;;;;10.71;100.00;101786.09;5107045;56;1142977;-75
2022/11/10 20:19:37;;;;;;;27.93;7.33;;;;;;;10.65;100.00;101785.99;5112935;55;1145050;-77
2022/11/10 20:25:02;;;;;;;25.88;6.65;;;;;;;10.57;100.00;101797.00;5046901;56;1143000;-76
2022/11/10 20:30:25;;;;;;;21.23;7.93;;;;;;;10.54;100.00;101794.52;5054147;56;1146814;-76
2022/11/10 20:35:48;;;;;;;67.67;27.70;;;;;;;10.51;100.00;101785.94;5100586;55;1143066;-75
2022/11/10 20:41:17;;;;;;;18.40;7.47;;;;;;;10.45;100.00;101779.19;5043081;57;1145059;-78
2022/11/10 20:46:41;;;;;;;26.17;10.23;;;;;;;10.42;100.00;101783.33;5043779;56;1142978;-78
2022/11/10 20:52:05;;;;;;;14.93;6.63;;;;;;;10.39;100.00;101783.48;5124075;55;1145117;-75
2022/11/10 20:57:29;;;;;;;19.63;7.17;;;;;;;10.32;100.00;101784.80;5128377;55;1143162;-76
2022/11/10 21:02:52;;;;;;;22.65;6.72;;;;;;;10.26;100.00;101792.20;5128863;55;1142942;-80
2022/11/10 21:08:15;;;;;;;23.60;6.70;;;;;;;10.25;100.00;101795.78;5128633;55;1142978;-76
2022/11/10 21:13:40;;;;;;;18.43;6.67;;;;;;;10.24;100.00;101794.93;5128371;55;1143215;-77
2022/11/10 21:19:03;;;;;;;15.80;6.10;;;;;;;10.20;100.00;101801.35;5127865;55;1142914;-77
2022/11/10 21:24:31;;;;;;;15.98;6.17;;;;;;;10.16;100.00;101794.02;5081289;55;1142846;-76
2022/11/10 21:29:54;;;;;;;17.85;4.87;;;;;;;10.12;100.00;101800.41;5014373;57;1143225;-77
2022/11/10 21:35:17;;;;;;;11.77;5.20;;;;;;;10.09;100.00;101797.92;5090538;55;1143043;-77
2022/11/10 21:40:41;;;;;;;16.60;4.75;;;;;;;10.06;100.00;101799.91;5103281;55;1143563;-77
2022/11/10 21:46:05;;;;;;;19.10;6.20;;;;;;;9.98;100.00;101798.99;5139040;55;1143262;-76
2022/11/10 21:51:29;;;;;;;12.20;4.80;;;;;;;10.01;100.00;101814.69;5171022;55;1140945;-76
2022/11/10 21:56:52;;;;;;;16.26;5.76;;;;;;;9.98;100.00;101821.92;5171058;55;1143237;-77
2022/11/10 22:02:16;;;;;;;17.00;6.67;;;;;;;10.02;100.00;101834.90;5163337;55;1141248;-77
2022/11/10 22:07:39;;;;;;;13.48;5.50;;;;;;;10.01;100.00;101835.83;5172491;55;1143225;-77
2022/11/10 22:18:45;;;;;;;11.77;4.00;;;;;;;9.99;100.00;101857.52;5070108;55;1141109;-77
2022/11/10 22:24:25;;;;;;;22.63;8.20;;;;;;;9.98;100.00;101866.39;5051114;57;1140937;-77
2022/11/10 22:29:48;;;;;;;15.80;5.30;;;;;;;9.97;100.00;101866.47;5056905;57;1140855;-77
2022/11/10 22:35:41;;;;;;;15.43;4.92;;;;;;;10.01;100.00;101870.66;5094090;56;1140865;-76
2022/11/10 22:46:18;;;;;;;16.17;5.03;;;;;;;10.10;100.00;101869.69;5121570;55;1142986;-76
2022/11/10 22:51:43;;;;;;;13.22;4.80;;;;;;;10.15;100.00;101873.41;5121987;55;1143261;-77
2022/11/10 22:57:06;;;;;;;9.10;3.50;;;;;;;10.19;100.00;101865.27;5099553;55;1143113;-76
2022/11/10 23:02:29;;;;;;;;;;;;;;;10.25;100.00;101862.74;5167089;55;1141658;-76
2022/11/10 23:07:52;;;;;;;10.90;3.93;;;;;;;10.28;100.00;101861.26;5194065;55;978250;-77
2022/11/10 23:13:15;;;;;;;11.80;3.75;;;;;;;10.32;100.00;101870.73;5187814;55;1141224;-77
2022/11/10 23:18:40;;;;;;;;;;;;;;;10.36;100.00;101866.99;5155446;56;1142878;-77
2022/11/10 23:24:03;;;;;;;10.38;3.72;;;;;;;10.43;100.00;101868.81;5070692;55;978480;-75
2022/11/10 23:29:26;;;;;;;12.40;3.85;;;;;;;10.44;100.00;101862.12;4985601;56;1140799;-76
2022/11/10 23:34:49;;;;;;;7.42;4.03;;;;;;;10.48;100.00;101849.58;5109652;55;1142906;-77
2022/11/10 23:40:13;;;;;;;13.35;4.47;;;;;;;10.48;100.00;101864.98;5044165;57;1141061;-77
2022/11/10 23:45:36;;;;;;;10.73;3.77;;;;;;;10.47;100.00;101873.00;5043631;57;1142800;-76
2022/11/10 23:51:00;;;;;;;14.15;4.72;;;;;;;10.50;100.00;101878.13;5061738;56;1143148;-77
2022/11/10 23:56:23;;;;;;;12.70;3.80;;;;;;;10.53;100.00;101862.09;5119087;56;1143212;-77
